Weather History for Pecos, TX

Change the Weather History Date:

Saturday, January 28, 2012

  Actual Average Record
Temperature  
Mean Temperature 43 °F -  
Max Temperature 51 °F 66 °F 85 °F (1987)
Min Temperature 35 °F 30 °F 11 °F (1951)
Degree Days  
Heating Degree Days 22    
Moisture  
Dew Point 26 °F    
Average Humidity 50    
Maximum Humidity 70    
Minimum Humidity 31    
Precipitation  
Precipitation 0.00 in - - ()
Sea Level Pressure  
Sea Level Pressure 30.42 in    
Wind  
Wind Speed 5 mph (ENE)    
Max Wind Speed 14 mph    
Max Gust Speed 17 mph    
Visibility 10 miles    
Events      
Averages and records for this station are not official NWS values.
T = Trace of Precipitation, MM = Missing Value Source: NWS Daily Summary

Daily Weather History Graph

Daily Weather History Graph

Search for Another Location

Airport:

Trip Planner

Search our weather history database for the weather conditions in past years. The results will help you decide how hot, cold, wet, or windy it might be!

Date:

Astronomy

Jan. 28, 2012 Rise Set
Actual Time 7:49 AM CST 6:25 PM CST
Civil Twilight 7:23 AM CST 6:50 PM CST
Nautical Twilight 6:54 AM CST 7:19 PM CST
Astronomical Twilight 6:25 AM CST 7:48 PM CST
Moon 10:37 AM CST (1/28) 11:47 PM CST (1/28)
Length of Visible Light 11h 27m
Length of Day
10h 35m
Waxing Crescent, 28% of the Moon is Illuminated
Jan 28
Waxing Crescent
Jan 30
First Quarter
Feb 7
Full
Feb 14
Last Quarter
Feb 21
New

Hourly Weather History & Observations

Time (CST) Temp. Windchill Dew Point Humidity Pressure Visibility Wind Dir Wind Speed Gust Speed Precip Events Conditions
12:15 AM 46.9 °F - 31.1 °F 54% 30.26 in 10.0 mi Calm Calm - N/A   Clear
12:35 AM 46.6 °F - 30.7 °F 54% 30.27 in 10.0 mi NNE 4.6 mph - N/A   Clear
12:55 AM 45.7 °F 43.4 °F 30.6 °F 56% 30.29 in 10.0 mi NNE 4.6 mph - N/A   Clear
1:15 AM 45.3 °F - 30.2 °F 56% 30.30 in 10.0 mi Calm Calm - N/A   Clear
1:35 AM 45.3 °F 41.6 °F 30.2 °F 56% 30.31 in 10.0 mi NNE 6.9 mph - N/A   Clear
1:55 AM 44.8 °F - 30.2 °F 57% 30.32 in 10.0 mi Calm Calm - N/A   Clear
2:15 AM 44.2 °F - 30.6 °F 59% 30.33 in 10.0 mi Calm Calm - N/A   Clear
2:35 AM 43.9 °F - 30.9 °F 60% 30.34 in 10.0 mi Calm Calm - N/A   Clear
2:55 AM 44.1 °F 40.1 °F 30.7 °F 59% 30.35 in 10.0 mi North 6.9 mph - N/A   Clear
3:15 AM 43.7 °F 40.3 °F 30.2 °F 59% 30.36 in 10.0 mi North 5.8 mph - N/A   Clear
3:35 AM 43.7 °F 39.1 °F 30.0 °F 59% 30.37 in 10.0 mi North 8.1 mph - N/A   Clear
3:55 AM 43.7 °F 39.1 °F 29.7 °F 58% 30.38 in 10.0 mi North 8.1 mph - N/A   Clear
4:35 AM 42.6 °F 39.0 °F 29.3 °F 59% 30.39 in 10.0 mi NNE 5.8 mph - N/A   Clear
4:55 AM 41.7 °F 38.0 °F 28.9 °F 61% 30.39 in 10.0 mi North 5.8 mph - N/A   Clear
5:15 AM 40.8 °F 36.9 °F 28.8 °F 62% 30.40 in 10.0 mi NNE 5.8 mph - N/A   Clear
5:35 AM 39.9 °F 36.7 °F 28.4 °F 63% 30.41 in 10.0 mi NNE 4.6 mph - N/A   Clear
5:55 AM 39.6 °F 34.7 °F 28.2 °F 64% 30.42 in 10.0 mi North 6.9 mph - N/A   Clear
6:15 AM 39.4 °F 36.1 °F 28.0 °F 64% 30.43 in 10.0 mi North 4.6 mph - N/A   Clear
6:35 AM 39.0 °F 32.8 °F 27.5 °F 63% 30.44 in 10.0 mi NE 9.2 mph - N/A   Clear
6:55 AM 38.5 °F 34.1 °F 26.6 °F 62% 30.45 in 10.0 mi NNE 5.8 mph - N/A   Clear
7:15 AM 37.4 °F 33.8 °F 27.1 °F 66% 30.46 in 10.0 mi NNE 4.6 mph - N/A   Clear
7:35 AM 36.7 °F 32.0 °F 27.1 °F 68% 30.48 in 10.0 mi NNE 5.8 mph - N/A   Clear
7:55 AM 36.1 °F 31.4 °F 26.6 °F 68% 30.49 in 10.0 mi NNE 5.8 mph - N/A   Clear
8:15 AM 35.4 °F 30.5 °F 26.6 °F 70% 30.50 in 10.0 mi NNE 5.8 mph - N/A   Clear
8:35 AM 36.3 °F 32.5 °F 27.3 °F 70% 30.51 in 10.0 mi NE 4.6 mph - N/A   Clear
8:55 AM 38.7 °F 34.3 °F 27.9 °F 65% 30.51 in 10.0 mi NE 5.8 mph - N/A   Clear
9:15 AM 39.7 °F 35.6 °F 28.2 °F 63% 30.51 in 10.0 mi NE 5.8 mph - N/A   Clear
9:35 AM 40.6 °F 35.4 °F 27.7 °F 60% 30.52 in 10.0 mi NE 8.1 mph - N/A   Clear
9:55 AM 42.3 °F 37.3 °F 27.3 °F 56% 30.52 in 10.0 mi NE 8.1 mph - N/A   Clear
10:15 AM 43.5 °F 38.9 °F 27.1 °F 53% 30.52 in 10.0 mi NE 8.1 mph - N/A   Clear
10:35 AM 44.6 °F 39.7 °F 26.4 °F 49% 30.52 in 10.0 mi East 9.2 mph - N/A   Clear
10:55 AM 45.1 °F 40.8 °F 26.1 °F 47% 30.52 in 10.0 mi ENE 8.1 mph - N/A   Clear
11:15 AM 45.5 °F 41.3 °F 24.4 °F 44% 30.51 in 10.0 mi East 8.1 mph - N/A   Clear
11:35 AM 45.7 °F 42.0 °F 23.0 °F 41% 30.51 in 10.0 mi East 6.9 mph - N/A   Clear
11:55 AM 46.4 °F 41.5 °F 21.4 °F 37% 30.50 in 10.0 mi East 10.4 mph - N/A   Clear
12:15 PM 46.6 °F - 20.1 °F 35% 30.50 in 10.0 mi ESE 3.5 mph 9.2 mph N/A   Clear
12:35 PM 47.5 °F - 20.7 °F 35% 30.48 in 10.0 mi Calm Calm - N/A   Clear
12:55 PM 47.5 °F - 21.4 °F 36% 30.46 in 10.0 mi ESE 6.9 mph - N/A   Clear
1:15 PM 48.4 °F - 21.4 °F 35% 30.45 in 10.0 mi NE 5.8 mph - N/A   Clear
1:35 PM 48.7 °F - 21.9 °F 35% 30.43 in 10.0 mi East 6.9 mph - N/A   Clear
1:55 PM 49.5 °F - 22.1 °F 34% 30.42 in 10.0 mi Calm Calm - N/A   Clear
2:15 PM 49.8 °F - 21.9 °F 33% 30.41 in 10.0 mi ESE 6.9 mph - N/A   Clear
2:35 PM 50.4 °F - 21.4 °F 32% 30.40 in 10.0 mi SE 10.4 mph 16.1 mph N/A   Clear
3:15 PM 50.7 °F - 21.2 °F 31% 30.39 in 10.0 mi ESE 13.8 mph 17.3 mph N/A   Clear
3:35 PM 50.9 °F - 21.2 °F 31% 30.38 in 10.0 mi ESE 5.8 mph 10.4 mph N/A   Clear
3:55 PM 50.9 °F - 20.8 °F 31% 30.37 in 10.0 mi SE 9.2 mph - N/A   Clear
4:15 PM 51.3 °F - 21.4 °F 31% 30.37 in 10.0 mi East 5.8 mph - N/A   Clear
4:35 PM 51.1 °F - 21.6 °F 31% 30.37 in 10.0 mi East 9.2 mph - N/A   Clear
4:55 PM 50.9 °F - 21.7 °F 32% 30.37 in 10.0 mi East 5.8 mph - N/A   Clear
5:15 PM 50.7 °F - 22.5 °F 33% 30.38 in 10.0 mi East 5.8 mph - N/A   Clear
5:35 PM 50.5 °F - 22.6 °F 34% 30.38 in 10.0 mi East 9.2 mph - N/A   Clear
5:55 PM 49.8 °F - 23.2 °F 35% 30.39 in 10.0 mi East 6.9 mph - N/A   Clear
6:15 PM 48.7 °F - 24.6 °F 39% 30.39 in 10.0 mi East 6.9 mph - N/A   Clear
6:35 PM 46.8 °F - 26.1 °F 44% 30.40 in 10.0 mi East 5.8 mph - N/A   Clear
6:55 PM 44.6 °F 42.2 °F 27.0 °F 50% 30.40 in 10.0 mi East 4.6 mph - N/A   Clear
7:15 PM 43.0 °F 40.3 °F 27.3 °F 54% 30.40 in 10.0 mi ESE 4.6 mph - N/A   Clear
7:35 PM 41.9 °F 40.0 °F 26.8 °F 55% 30.41 in 10.0 mi ESE 3.5 mph - N/A   Clear
7:55 PM 41.9 °F 39.0 °F 27.1 °F 56% 30.41 in 10.0 mi ESE 4.6 mph - N/A   Clear
8:15 PM 40.6 °F - 26.8 °F 58% 30.42 in 10.0 mi Calm Calm - N/A   Clear
8:35 PM 39.9 °F - 27.0 °F 60% 30.42 in 10.0 mi Calm Calm - N/A   Clear
8:55 PM 39.4 °F - 26.8 °F 61% 30.42 in 10.0 mi Calm Calm - N/A   Clear
9:15 PM 38.7 °F - 27.0 °F 63% 30.42 in 10.0 mi Calm Calm - N/A   Clear
9:35 PM 39.4 °F - 27.0 °F 61% 30.42 in 10.0 mi Calm Calm - N/A   Clear
9:55 PM 39.4 °F - 27.1 °F 62% 30.42 in 10.0 mi Calm Calm - N/A   Clear
10:15 PM 37.6 °F - 28.2 °F 69% 30.42 in 10.0 mi Calm Calm - N/A   Clear
10:35 PM 36.5 °F 32.7 °F 28.6 °F 73% 30.41 in 10.0 mi SSE 4.6 mph - N/A   Clear
10:55 PM 36.3 °F 31.6 °F 27.9 °F 71% 30.41 in 10.0 mi South 5.8 mph - N/A   Clear
11:15 PM 34.9 °F 30.8 °F 27.7 °F 75% 30.42 in 10.0 mi WSW 4.6 mph - N/A   Clear
11:35 PM 33.8 °F 30.8 °F 28.0 °F 79% 30.42 in 10.0 mi WSW 3.5 mph - N/A   Clear
11:55 PM 32.5 °F 27.1 °F 27.5 °F 82% 30.42 in 10.0 mi West 5.8 mph - N/A   Clear